sensor_id;sensor_type;location;lat;lon;timestamp;temperature;humidity
12370;DHT22;6249;52.128;9.986;2023-03-23T00:02:31;13.90;99.90
12370;DHT22;6249;52.128;9.986;2023-03-23T00:05:55;13.80;99.90
12370;DHT22;6249;52.128;9.986;2023-03-23T00:09:21;13.70;99.90
12370;DHT22;6249;52.128;9.986;2023-03-23T00:12:45;13.80;99.90
12370;DHT22;6249;52.128;9.986;2023-03-23T00:16:13;13.70;99.90
12370;DHT22;6249;52.128;9.986;2023-03-23T00:19:40;13.80;99.90
12370;DHT22;6249;52.128;9.986;2023-03-23T00:23:06;13.80;99.90
12370;DHT22;6249;52.128;9.986;2023-03-23T00:26:28;13.80;99.90
12370;DHT22;6249;52.128;9.986;2023-03-23T00:29:50;13.60;99.90
12370;DHT22;6249;52.128;9.986;2023-03-23T00:33:12;13.40;99.90
12370;DHT22;6249;52.128;9.986;2023-03-23T00:36:34;13.00;99.90
12370;DHT22;6249;52.128;9.986;2023-03-23T00:39:55;12.80;99.90
12370;DHT22;6249;52.128;9.986;2023-03-23T00:43:20;12.80;99.90
12370;DHT22;6249;52.128;9.986;2023-03-23T00:46:41;12.70;99.90
12370;DHT22;6249;52.128;9.986;2023-03-23T00:50:05;12.70;99.90
12370;DHT22;6249;52.128;9.986;2023-03-23T00:53:26;12.80;99.90
12370;DHT22;6249;52.128;9.986;2023-03-23T00:56:49;13.00;99.90
12370;DHT22;6249;52.128;9.986;2023-03-23T01:00:11;12.90;99.90
12370;DHT22;6249;52.128;9.986;2023-03-23T01:03:34;13.10;99.90
12370;DHT22;6249;52.128;9.986;2023-03-23T01:06:55;12.90;99.90
12370;DHT22;6249;52.128;9.986;2023-03-23T01:10:16;13.10;99.90
12370;DHT22;6249;52.128;9.986;2023-03-23T01:13:38;12.90;99.90
12370;DHT22;6249;52.128;9.986;2023-03-23T01:17:00;12.80;99.90
12370;DHT22;6249;52.128;9.986;2023-03-23T01:20:23;12.80;99.90
12370;DHT22;6249;52.128;9.986;2023-03-23T01:23:47;12.90;99.90
12370;DHT22;6249;52.128;9.986;2023-03-23T01:27:10;12.70;99.90
12370;DHT22;6249;52.128;9.986;2023-03-23T01:30:31;12.60;99.90
12370;DHT22;6249;52.128;9.986;2023-03-23T01:33:56;12.70;99.90
12370;DHT22;6249;52.128;9.986;2023-03-23T01:37:17;12.50;99.90
12370;DHT22;6249;52.128;9.986;2023-03-23T01:40:40;12.30;99.90
12370;DHT22;6249;52.128;9.986;2023-03-23T01:47:48;12.30;99.90
12370;DHT22;6249;52.128;9.986;2023-03-23T01:51:17;12.50;99.90
12370;DHT22;6249;52.128;9.986;2023-03-23T01:54:39;12.40;99.90
12370;DHT22;6249;52.128;9.986;2023-03-23T01:58:00;12.50;99.90
12370;DHT22;6249;52.128;9.986;2023-03-23T02:01:22;12.50;99.90
12370;DHT22;6249;52.128;9.986;2023-03-23T02:04:45;12.60;99.90
12370;DHT22;6249;52.128;9.986;2023-03-23T02:08:08;12.70;99.90
12370;DHT22;6249;52.128;9.986;2023-03-23T02:11:29;12.80;99.90
12370;DHT22;6249;52.128;9.986;2023-03-23T02:14:49;12.70;99.90
12370;DHT22;6249;52.128;9.986;2023-03-23T02:18:52;12.70;99.90
12370;DHT22;6249;52.128;9.986;2023-03-23T02:30:07;12.60;99.90
12370;DHT22;6249;52.128;9.986;2023-03-23T02:33:48;12.50;99.90
12370;DHT22;6249;52.128;9.986;2023-03-23T02:37:16;12.50;99.90
12370;DHT22;6249;52.128;9.986;2023-03-23T02:40:44;12.60;99.90
12370;DHT22;6249;52.128;9.986;2023-03-23T02:44:06;12.70;99.90
12370;DHT22;6249;52.128;9.986;2023-03-23T02:47:28;12.50;99.90
12370;DHT22;6249;52.128;9.986;2023-03-23T02:50:55;12.40;99.90
12370;DHT22;6249;52.128;9.986;2023-03-23T02:54:20;12.40;99.90
12370;DHT22;6249;52.128;9.986;2023-03-23T02:57:42;12.40;99.90
12370;DHT22;6249;52.128;9.986;2023-03-23T03:12:24;11.70;99.90
12370;DHT22;6249;52.128;9.986;2023-03-23T03:15:49;11.70;99.90
12370;DHT22;6249;52.128;9.986;2023-03-23T03:19:33;11.70;99.90
12370;DHT22;6249;52.128;9.986;2023-03-23T03:22:56;11.60;99.90
12370;DHT22;6249;52.128;9.986;2023-03-23T03:26:18;11.80;99.90
12370;DHT22;6249;52.128;9.986;2023-03-23T03:29:41;11.60;99.90
12370;DHT22;6249;52.128;9.986;2023-03-23T03:33:05;11.50;99.90
12370;DHT22;6249;52.128;9.986;2023-03-23T03:36:30;11.40;99.90
12370;DHT22;6249;52.128;9.986;2023-03-23T03:39:54;11.20;99.90
12370;DHT22;6249;52.128;9.986;2023-03-23T03:43:15;11.20;99.90
12370;DHT22;6249;52.128;9.986;2023-03-23T03:46:39;11.40;99.90
12370;DHT22;6249;52.128;9.986;2023-03-23T03:50:00;11.30;99.90
12370;DHT22;6249;52.128;9.986;2023-03-23T03:53:23;11.20;99.90
12370;DHT22;6249;52.128;9.986;2023-03-23T03:56:46;11.20;99.90
12370;DHT22;6249;52.128;9.986;2023-03-23T04:00:08;11.20;99.90
12370;DHT22;6249;52.128;9.986;2023-03-23T04:03:35;11.20;99.90
12370;DHT22;6249;52.128;9.986;2023-03-23T04:06:58;11.20;99.90
12370;DHT22;6249;52.128;9.986;2023-03-23T04:10:20;11.20;99.90
12370;DHT22;6249;52.128;9.986;2023-03-23T04:13:41;11.20;99.90
12370;DHT22;6249;52.128;9.986;2023-03-23T04:17:02;11.20;99.90
12370;DHT22;6249;52.128;9.986;2023-03-23T04:20:24;11.30;99.90
12370;DHT22;6249;52.128;9.986;2023-03-23T04:23:45;11.30;99.90
12370;DHT22;6249;52.128;9.986;2023-03-23T04:27:08;11.30;99.90
12370;DHT22;6249;52.128;9.986;2023-03-23T04:30:29;11.20;99.90
12370;DHT22;6249;52.128;9.986;2023-03-23T04:33:52;11.40;99.90
12370;DHT22;6249;52.128;9.986;2023-03-23T04:37:12;11.40;99.90
12370;DHT22;6249;52.128;9.986;2023-03-23T04:40:36;11.40;99.90
12370;DHT22;6249;52.128;9.986;2023-03-23T04:43:57;11.40;99.90
12370;DHT22;6249;52.128;9.986;2023-03-23T04:47:23;11.60;99.90
12370;DHT22;6249;52.128;9.986;2023-03-23T04:50:44;11.60;99.90
12370;DHT22;6249;52.128;9.986;2023-03-23T04:54:05;11.60;99.90
12370;DHT22;6249;52.128;9.986;2023-03-23T04:57:31;11.50;99.90
12370;DHT22;6249;52.128;9.986;2023-03-23T05:00:52;11.50;99.90
12370;DHT22;6249;52.128;9.986;2023-03-23T05:04:12;11.40;99.90
12370;DHT22;6249;52.128;9.986;2023-03-23T05:07:37;11.40;99.90
12370;DHT22;6249;52.128;9.986;2023-03-23T05:11:00;11.40;99.90
12370;DHT22;6249;52.128;9.986;2023-03-23T05:14:23;11.60;99.90
12370;DHT22;6249;52.128;9.986;2023-03-23T05:17:46;11.50;99.90
12370;DHT22;6249;52.128;9.986;2023-03-23T05:21:09;11.50;99.90
12370;DHT22;6249;52.128;9.986;2023-03-23T05:24:32;11.40;99.90
12370;DHT22;6249;52.128;9.986;2023-03-23T05:27:53;11.40;99.90
12370;DHT22;6249;52.128;9.986;2023-03-23T05:31:14;11.50;99.90
12370;DHT22;6249;52.128;9.986;2023-03-23T05:34:35;11.50;99.90
12370;DHT22;6249;52.128;9.986;2023-03-23T05:37:55;11.50;99.90
12370;DHT22;6249;52.128;9.986;2023-03-23T05:41:17;11.50;99.90
12370;DHT22;6249;52.128;9.986;2023-03-23T05:44:37;11.50;99.90
12370;DHT22;6249;52.128;9.986;2023-03-23T05:47:58;11.60;99.90
12370;DHT22;6249;52.128;9.986;2023-03-23T05:51:19;11.50;99.90
12370;DHT22;6249;52.128;9.986;2023-03-23T05:54:40;11.50;99.90
12370;DHT22;6249;52.128;9.986;2023-03-23T05:58:04;11.50;99.90
12370;DHT22;6249;52.128;9.986;2023-03-23T06:01:27;11.50;99.90
12370;DHT22;6249;52.128;9.986;2023-03-23T06:04:50;11.60;99.90
12370;DHT22;6249;52.128;9.986;2023-03-23T06:08:11;11.70;99.90
12370;DHT22;6249;52.128;9.986;2023-03-23T06:11:34;11.70;99.90
12370;DHT22;6249;52.128;9.986;2023-03-23T06:15:00;11.80;99.90
12370;DHT22;6249;52.128;9.986;2023-03-23T06:18:21;11.70;99.90
12370;DHT22;6249;52.128;9.986;2023-03-23T06:21:42;11.60;99.90
12370;DHT22;6249;52.128;9.986;2023-03-23T06:25:05;11.60;99.90
12370;DHT22;6249;52.128;9.986;2023-03-23T06:28:26;11.90;99.90
12370;DHT22;6249;52.128;9.986;2023-03-23T06:31:52;11.80;99.90
12370;DHT22;6249;52.128;9.986;2023-03-23T06:35:14;11.80;99.90
12370;DHT22;6249;52.128;9.986;2023-03-23T06:38:35;11.90;99.90
12370;DHT22;6249;52.128;9.986;2023-03-23T06:41:57;11.90;99.90
12370;DHT22;6249;52.128;9.986;2023-03-23T06:45:19;11.90;99.90
12370;DHT22;6249;52.128;9.986;2023-03-23T06:48:40;11.90;99.90
12370;DHT22;6249;52.128;9.986;2023-03-23T06:52:01;11.90;99.90
12370;DHT22;6249;52.128;9.986;2023-03-23T06:55:26;11.90;99.90
12370;DHT22;6249;52.128;9.986;2023-03-23T06:58:49;12.10;99.90
12370;DHT22;6249;52.128;9.986;2023-03-23T07:02:13;12.10;99.90
12370;DHT22;6249;52.128;9.986;2023-03-23T07:05:34;12.30;99.90
12370;DHT22;6249;52.128;9.986;2023-03-23T07:08:57;12.30;99.90
12370;DHT22;6249;52.128;9.986;2023-03-23T07:12:21;12.40;99.90
12370;DHT22;6249;52.128;9.986;2023-03-23T07:15:44;12.50;99.90
12370;DHT22;6249;52.128;9.986;2023-03-23T07:19:04;12.60;99.90
12370;DHT22;6249;52.128;9.986;2023-03-23T07:22:25;12.60;99.90
12370;DHT22;6249;52.128;9.986;2023-03-23T07:25:46;12.50;99.90
12370;DHT22;6249;52.128;9.986;2023-03-23T07:29:09;12.60;99.90
12370;DHT22;6249;52.128;9.986;2023-03-23T07:32:29;12.70;99.90
12370;DHT22;6249;52.128;9.986;2023-03-23T07:35:52;12.60;99.90
12370;DHT22;6249;52.128;9.986;2023-03-23T07:39:13;12.60;99.90
12370;DHT22;6249;52.128;9.986;2023-03-23T07:42:34;12.80;99.90
12370;DHT22;6249;52.128;9.986;2023-03-23T07:45:54;13.00;99.90
12370;DHT22;6249;52.128;9.986;2023-03-23T07:49:15;13.10;99.90
12370;DHT22;6249;52.128;9.986;2023-03-23T07:52:36;13.30;99.90
12370;DHT22;6249;52.128;9.986;2023-03-23T07:55:57;13.50;99.90
12370;DHT22;6249;52.128;9.986;2023-03-23T07:59:20;13.60;99.90
12370;DHT22;6249;52.128;9.986;2023-03-23T08:02:44;13.70;99.90
12370;DHT22;6249;52.128;9.986;2023-03-23T08:06:05;13.60;99.90
12370;DHT22;6249;52.128;9.986;2023-03-23T08:09:26;13.60;99.90
12370;DHT22;6249;52.128;9.986;2023-03-23T08:12:52;13.70;99.90
12370;DHT22;6249;52.128;9.986;2023-03-23T08:16:13;13.80;99.90
12370;DHT22;6249;52.128;9.986;2023-03-23T08:19:33;14.00;99.90
12370;DHT22;6249;52.128;9.986;2023-03-23T08:22:57;14.00;99.90
12370;DHT22;6249;52.128;9.986;2023-03-23T08:26:20;14.20;99.90
12370;DHT22;6249;52.128;9.986;2023-03-23T08:29:44;14.30;99.90
12370;DHT22;6249;52.128;9.986;2023-03-23T08:33:06;14.30;99.90
12370;DHT22;6249;52.128;9.986;2023-03-23T08:36:29;14.30;99.90
12370;DHT22;6249;52.128;9.986;2023-03-23T08:39:55;14.30;99.90
12370;DHT22;6249;52.128;9.986;2023-03-23T08:43:18;14.30;99.90
12370;DHT22;6249;52.128;9.986;2023-03-23T08:46:39;14.40;99.90
12370;DHT22;6249;52.128;9.986;2023-03-23T08:49:59;14.40;99.90
12370;DHT22;6249;52.128;9.986;2023-03-23T08:53:22;14.50;99.90
12370;DHT22;6249;52.128;9.986;2023-03-23T08:56:43;14.60;99.90
12370;DHT22;6249;52.128;9.986;2023-03-23T09:00:06;14.60;99.90
12370;DHT22;6249;52.128;9.986;2023-03-23T09:03:49;14.50;99.90
12370;DHT22;6249;52.128;9.986;2023-03-23T09:07:12;14.50;99.90
12370;DHT22;6249;52.128;9.986;2023-03-23T09:10:34;14.60;99.90
12370;DHT22;6249;52.128;9.986;2023-03-23T09:13:55;14.60;99.90
12370;DHT22;6249;52.128;9.986;2023-03-23T09:17:18;14.50;99.90
12370;DHT22;6249;52.128;9.986;2023-03-23T09:20:38;14.50;99.90
12370;DHT22;6249;52.128;9.986;2023-03-23T09:24:02;14.50;99.90
12370;DHT22;6249;52.128;9.986;2023-03-23T09:27:27;14.70;99.90
12370;DHT22;6249;52.128;9.986;2023-03-23T09:30:50;14.70;99.90
12370;DHT22;6249;52.128;9.986;2023-03-23T09:34:14;14.70;99.90
12370;DHT22;6249;52.128;9.986;2023-03-23T09:37:36;14.60;99.90
12370;DHT22;6249;52.128;9.986;2023-03-23T09:41:24;14.60;99.90
12370;DHT22;6249;52.128;9.986;2023-03-23T09:45:13;14.60;99.90
12370;DHT22;6249;52.128;9.986;2023-03-23T09:49:10;14.80;99.90
12370;DHT22;6249;52.128;9.986;2023-03-23T09:52:40;14.80;99.90
12370;DHT22;6249;52.128;9.986;2023-03-23T09:56:11;14.90;99.90
12370;DHT22;6249;52.128;9.986;2023-03-23T09:59:52;14.90;99.90
12370;DHT22;6249;52.128;9.986;2023-03-23T10:03:17;14.90;99.90
12370;DHT22;6249;52.128;9.986;2023-03-23T10:06:39;15.00;99.90
12370;DHT22;6249;52.128;9.986;2023-03-23T10:10:02;15.10;99.90
12370;DHT22;6249;52.128;9.986;2023-03-23T10:24:03;15.10;99.90
12370;DHT22;6249;52.128;9.986;2023-03-23T10:27:37;15.20;99.90
12370;DHT22;6249;52.128;9.986;2023-03-23T10:31:02;15.30;99.90
12370;DHT22;6249;52.128;9.986;2023-03-23T10:34:30;15.30;99.90
12370;DHT22;6249;52.128;9.986;2023-03-23T10:37:59;15.30;99.90
12370;DHT22;6249;52.128;9.986;2023-03-23T10:41:23;15.30;99.90
12370;DHT22;6249;52.128;9.986;2023-03-23T10:44:44;15.40;99.90
12370;DHT22;6249;52.128;9.986;2023-03-23T10:48:19;15.40;99.90
12370;DHT22;6249;52.128;9.986;2023-03-23T10:51:52;15.20;99.90
12370;DHT22;6249;52.128;9.986;2023-03-23T10:55:20;15.10;99.90
12370;DHT22;6249;52.128;9.986;2023-03-23T10:58:41;15.00;99.90
12370;DHT22;6249;52.128;9.986;2023-03-23T11:02:03;15.00;99.90
12370;DHT22;6249;52.128;9.986;2023-03-23T11:05:47;15.10;99.90
12370;DHT22;6249;52.128;9.986;2023-03-23T11:09:13;15.30;99.90
12370;DHT22;6249;52.128;9.986;2023-03-23T11:12:37;15.70;99.90
12370;DHT22;6249;52.128;9.986;2023-03-23T11:15:58;16.50;99.90
12370;DHT22;6249;52.128;9.986;2023-03-23T11:19:36;17.30;99.90
12370;DHT22;6249;52.128;9.986;2023-03-23T11:22:57;17.80;99.90
12370;DHT22;6249;52.128;9.986;2023-03-23T11:26:27;18.40;99.90
12370;DHT22;6249;52.128;9.986;2023-03-23T11:29:52;19.10;98.60
12370;DHT22;6249;52.128;9.986;2023-03-23T11:33:16;19.20;99.80
12370;DHT22;6249;52.128;9.986;2023-03-23T11:36:43;19.80;97.10
12370;DHT22;6249;52.128;9.986;2023-03-23T11:43:34;20.60;95.60
12370;DHT22;6249;52.128;9.986;2023-03-23T11:47:22;20.70;95.20
12370;DHT22;6249;52.128;9.986;2023-03-23T11:50:54;20.80;93.90
12370;DHT22;6249;52.128;9.986;2023-03-23T11:54:31;19.90;95.00
12370;DHT22;6249;52.128;9.986;2023-03-23T11:57:59;19.30;96.30
12370;DHT22;6249;52.128;9.986;2023-03-23T12:01:45;19.30;96.10
12370;DHT22;6249;52.128;9.986;2023-03-23T12:16:03;18.90;94.70
12370;DHT22;6249;52.128;9.986;2023-03-23T12:19:41;18.40;95.60
12370;DHT22;6249;52.128;9.986;2023-03-23T12:23:21;18.20;96.00
12370;DHT22;6249;52.128;9.986;2023-03-23T12:26:54;17.50;96.30
12370;DHT22;6249;52.128;9.986;2023-03-23T12:30:32;17.20;97.60
12370;DHT22;6249;52.128;9.986;2023-03-23T12:44:56;16.30;99.90
12370;DHT22;6249;52.128;9.986;2023-03-23T12:48:24;16.30;99.90
12370;DHT22;6249;52.128;9.986;2023-03-23T12:56:04;16.30;99.40
12370;DHT22;6249;52.128;9.986;2023-03-23T12:59:59;16.30;99.90
12370;DHT22;6249;52.128;9.986;2023-03-23T13:04:12;16.10;99.80
12370;DHT22;6249;52.128;9.986;2023-03-23T13:07:19;15.80;99.90
12370;DHT22;6249;52.128;9.986;2023-03-23T13:10:48;15.60;99.90
12370;DHT22;6249;52.128;9.986;2023-03-23T13:18:12;14.50;99.90
12370;DHT22;6249;52.128;9.986;2023-03-23T13:21:48;14.20;99.90
12370;DHT22;6249;52.128;9.986;2023-03-23T13:25:17;14.10;99.90
12370;DHT22;6249;52.128;9.986;2023-03-23T13:29:00;14.00;99.90
12370;DHT22;6249;52.128;9.986;2023-03-23T13:32:36;14.40;99.90
12370;DHT22;6249;52.128;9.986;2023-03-23T13:36:07;16.20;99.90
12370;DHT22;6249;52.128;9.986;2023-03-23T13:39:30;16.70;99.90
12370;DHT22;6249;52.128;9.986;2023-03-23T13:42:56;16.10;99.90
12370;DHT22;6249;52.128;9.986;2023-03-23T13:53:15;15.10;99.90
12370;DHT22;6249;52.128;9.986;2023-03-23T13:56:48;14.80;99.90
12370;DHT22;6249;52.128;9.986;2023-03-23T14:03:55;14.10;99.90
12370;DHT22;6249;52.128;9.986;2023-03-23T14:07:17;13.90;99.90
12370;DHT22;6249;52.128;9.986;2023-03-23T14:14:20;13.60;99.90
12370;DHT22;6249;52.128;9.986;2023-03-23T14:17:43;13.50;99.90
12370;DHT22;6249;52.128;9.986;2023-03-23T14:21:06;13.50;99.90
12370;DHT22;6249;52.128;9.986;2023-03-23T14:24:41;13.20;99.90
12370;DHT22;6249;52.128;9.986;2023-03-23T14:28:02;13.00;99.90
12370;DHT22;6249;52.128;9.986;2023-03-23T14:31:27;12.80;99.90
12370;DHT22;6249;52.128;9.986;2023-03-23T14:34:50;12.70;99.90
12370;DHT22;6249;52.128;9.986;2023-03-23T14:38:16;12.70;99.90
12370;DHT22;6249;52.128;9.986;2023-03-23T14:41:40;12.50;99.90
12370;DHT22;6249;52.128;9.986;2023-03-23T14:45:05;12.30;99.90
12370;DHT22;6249;52.128;9.986;2023-03-23T14:48:28;12.20;99.90
12370;DHT22;6249;52.128;9.986;2023-03-23T14:51:52;12.20;99.90
12370;DHT22;6249;52.128;9.986;2023-03-23T14:55:19;12.30;99.90
12370;DHT22;6249;52.128;9.986;2023-03-23T14:58:51;12.30;99.90
12370;DHT22;6249;52.128;9.986;2023-03-23T15:02:24;12.40;99.90
12370;DHT22;6249;52.128;9.986;2023-03-23T15:05:58;12.40;99.90
12370;DHT22;6249;52.128;9.986;2023-03-23T15:09:23;12.50;99.90
12370;DHT22;6249;52.128;9.986;2023-03-23T15:12:48;12.60;99.90
12370;DHT22;6249;52.128;9.986;2023-03-23T15:16:19;12.70;99.90
12370;DHT22;6249;52.128;9.986;2023-03-23T15:19:43;12.80;99.90
12370;DHT22;6249;52.128;9.986;2023-03-23T15:23:06;12.80;99.90
12370;DHT22;6249;52.128;9.986;2023-03-23T15:26:41;12.80;99.90
12370;DHT22;6249;52.128;9.986;2023-03-23T15:30:32;12.80;99.90
12370;DHT22;6249;52.128;9.986;2023-03-23T15:33:58;12.60;99.90
12370;DHT22;6249;52.128;9.986;2023-03-23T15:37:26;12.60;99.90
12370;DHT22;6249;52.128;9.986;2023-03-23T15:40:50;12.60;99.90
12370;DHT22;6249;52.128;9.986;2023-03-23T15:44:25;12.60;99.90
12370;DHT22;6249;52.128;9.986;2023-03-23T15:47:52;12.80;99.90
12370;DHT22;6249;52.128;9.986;2023-03-23T15:51:13;13.10;99.90
12370;DHT22;6249;52.128;9.986;2023-03-23T15:54:33;13.00;99.90
12370;DHT22;6249;52.128;9.986;2023-03-23T15:57:57;13.20;99.90
12370;DHT22;6249;52.128;9.986;2023-03-23T16:01:23;13.20;99.90
12370;DHT22;6249;52.128;9.986;2023-03-23T16:04:46;13.20;99.90
12370;DHT22;6249;52.128;9.986;2023-03-23T16:08:12;13.40;99.90
12370;DHT22;6249;52.128;9.986;2023-03-23T16:11:33;13.20;99.90
12370;DHT22;6249;52.128;9.986;2023-03-23T16:14:53;13.30;99.90
12370;DHT22;6249;52.128;9.986;2023-03-23T16:18:19;13.30;99.90
12370;DHT22;6249;52.128;9.986;2023-03-23T16:21:41;13.40;99.90
12370;DHT22;6249;52.128;9.986;2023-03-23T16:25:04;13.60;99.90
12370;DHT22;6249;52.128;9.986;2023-03-23T16:28:25;13.50;99.90
12370;DHT22;6249;52.128;9.986;2023-03-23T16:31:46;13.40;99.90
12370;DHT22;6249;52.128;9.986;2023-03-23T16:35:09;13.50;99.90
12370;DHT22;6249;52.128;9.986;2023-03-23T16:38:30;13.50;99.90
12370;DHT22;6249;52.128;9.986;2023-03-23T16:41:58;13.90;99.90
12370;DHT22;6249;52.128;9.986;2023-03-23T16:45:20;15.20;99.90
12370;DHT22;6249;52.128;9.986;2023-03-23T16:48:40;16.10;99.90
12370;DHT22;6249;52.128;9.986;2023-03-23T16:52:01;16.50;99.90
12370;DHT22;6249;52.128;9.986;2023-03-23T16:55:21;16.80;99.90
12370;DHT22;6249;52.128;9.986;2023-03-23T16:58:42;16.30;99.90
12370;DHT22;6249;52.128;9.986;2023-03-23T17:02:05;15.70;99.90
12370;DHT22;6249;52.128;9.986;2023-03-23T17:05:27;14.80;99.90
12370;DHT22;6249;52.128;9.986;2023-03-23T17:08:48;14.40;99.90
12370;DHT22;6249;52.128;9.986;2023-03-23T17:12:09;14.20;99.90
12370;DHT22;6249;52.128;9.986;2023-03-23T17:15:30;13.90;99.90
12370;DHT22;6249;52.128;9.986;2023-03-23T17:18:51;13.80;99.90
12370;DHT22;6249;52.128;9.986;2023-03-23T17:22:11;13.50;99.90
12370;DHT22;6249;52.128;9.986;2023-03-23T17:25:32;13.30;99.90
12370;DHT22;6249;52.128;9.986;2023-03-23T17:28:52;13.20;99.90
12370;DHT22;6249;52.128;9.986;2023-03-23T17:32:16;13.10;99.90
12370;DHT22;6249;52.128;9.986;2023-03-23T17:35:37;13.10;99.90
12370;DHT22;6249;52.128;9.986;2023-03-23T17:38:57;13.10;99.90
12370;DHT22;6249;52.128;9.986;2023-03-23T17:42:18;13.10;99.90
12370;DHT22;6249;52.128;9.986;2023-03-23T17:45:40;13.10;99.90
12370;DHT22;6249;52.128;9.986;2023-03-23T17:49:00;13.00;99.90
12370;DHT22;6249;52.128;9.986;2023-03-23T17:52:21;13.00;99.90
12370;DHT22;6249;52.128;9.986;2023-03-23T17:55:44;12.80;99.90
12370;DHT22;6249;52.128;9.986;2023-03-23T17:59:05;12.80;99.90
12370;DHT22;6249;52.128;9.986;2023-03-23T18:02:27;12.80;99.90
12370;DHT22;6249;52.128;9.986;2023-03-23T18:05:50;12.80;99.90
12370;DHT22;6249;52.128;9.986;2023-03-23T18:09:12;12.80;99.90
12370;DHT22;6249;52.128;9.986;2023-03-23T18:12:32;12.80;99.90
12370;DHT22;6249;52.128;9.986;2023-03-23T18:15:54;12.60;99.90
12370;DHT22;6249;52.128;9.986;2023-03-23T18:19:15;12.80;99.90
12370;DHT22;6249;52.128;9.986;2023-03-23T18:22:38;12.70;99.90
12370;DHT22;6249;52.128;9.986;2023-03-23T18:25:59;12.60;99.90
12370;DHT22;6249;52.128;9.986;2023-03-23T18:29:22;12.60;99.90
12370;DHT22;6249;52.128;9.986;2023-03-23T18:32:45;12.70;99.90
12370;DHT22;6249;52.128;9.986;2023-03-23T18:36:08;12.70;99.90
12370;DHT22;6249;52.128;9.986;2023-03-23T18:39:31;12.70;99.90
12370;DHT22;6249;52.128;9.986;2023-03-23T18:42:53;12.80;99.90
12370;DHT22;6249;52.128;9.986;2023-03-23T18:46:13;12.80;99.90
12370;DHT22;6249;52.128;9.986;2023-03-23T18:49:36;12.70;99.90
12370;DHT22;6249;52.128;9.986;2023-03-23T18:52:59;12.90;99.90
12370;DHT22;6249;52.128;9.986;2023-03-23T18:56:22;13.10;99.90
12370;DHT22;6249;52.128;9.986;2023-03-23T18:59:45;13.00;99.90
12370;DHT22;6249;52.128;9.986;2023-03-23T19:03:07;13.00;99.90
12370;DHT22;6249;52.128;9.986;2023-03-23T19:06:29;12.90;99.90
12370;DHT22;6249;52.128;9.986;2023-03-23T19:09:51;12.80;99.90
12370;DHT22;6249;52.128;9.986;2023-03-23T19:13:14;12.70;99.90
12370;DHT22;6249;52.128;9.986;2023-03-23T19:16:36;12.60;99.90
12370;DHT22;6249;52.128;9.986;2023-03-23T19:20:01;12.60;99.90
12370;DHT22;6249;52.128;9.986;2023-03-23T19:23:22;12.60;99.90
12370;DHT22;6249;52.128;9.986;2023-03-23T19:26:44;12.40;99.90
12370;DHT22;6249;52.128;9.986;2023-03-23T19:30:08;12.30;99.90
12370;DHT22;6249;52.128;9.986;2023-03-23T19:33:31;12.10;99.90
12370;DHT22;6249;52.128;9.986;2023-03-23T19:36:52;12.00;99.90
12370;DHT22;6249;52.128;9.986;2023-03-23T19:40:13;11.90;99.90
12370;DHT22;6249;52.128;9.986;2023-03-23T19:43:34;11.80;99.90
12370;DHT22;6249;52.128;9.986;2023-03-23T19:46:58;11.70;99.90
12370;DHT22;6249;52.128;9.986;2023-03-23T19:50:19;11.60;99.90
12370;DHT22;6249;52.128;9.986;2023-03-23T19:53:40;11.50;99.90
12370;DHT22;6249;52.128;9.986;2023-03-23T19:57:01;11.40;99.90
12370;DHT22;6249;52.128;9.986;2023-03-23T20:00:22;11.40;99.90
12370;DHT22;6249;52.128;9.986;2023-03-23T20:03:46;11.40;99.90
12370;DHT22;6249;52.128;9.986;2023-03-23T20:07:09;11.40;99.90
12370;DHT22;6249;52.128;9.986;2023-03-23T20:10:29;11.40;99.90
12370;DHT22;6249;52.128;9.986;2023-03-23T20:13:53;11.30;99.90
12370;DHT22;6249;52.128;9.986;2023-03-23T20:17:14;11.10;99.90
12370;DHT22;6249;52.128;9.986;2023-03-23T20:20:35;11.10;99.90
12370;DHT22;6249;52.128;9.986;2023-03-23T20:23:57;11.00;99.90
12370;DHT22;6249;52.128;9.986;2023-03-23T20:27:18;11.10;99.90
12370;DHT22;6249;52.128;9.986;2023-03-23T20:30:40;11.00;99.90
12370;DHT22;6249;52.128;9.986;2023-03-23T20:34:09;11.00;99.90
12370;DHT22;6249;52.128;9.986;2023-03-23T20:37:32;10.90;99.90
12370;DHT22;6249;52.128;9.986;2023-03-23T20:40:53;10.80;99.90
12370;DHT22;6249;52.128;9.986;2023-03-23T20:44:18;10.80;99.90
12370;DHT22;6249;52.128;9.986;2023-03-23T20:47:39;10.80;99.90
12370;DHT22;6249;52.128;9.986;2023-03-23T20:51:02;10.80;99.90
12370;DHT22;6249;52.128;9.986;2023-03-23T20:54:26;10.90;99.90
12370;DHT22;6249;52.128;9.986;2023-03-23T20:57:49;10.90;99.90
12370;DHT22;6249;52.128;9.986;2023-03-23T21:01:10;11.00;99.90
12370;DHT22;6249;52.128;9.986;2023-03-23T21:04:33;11.10;99.90
12370;DHT22;6249;52.128;9.986;2023-03-23T21:07:56;11.30;99.90
12370;DHT22;6249;52.128;9.986;2023-03-23T21:11:20;11.40;99.90
12370;DHT22;6249;52.128;9.986;2023-03-23T21:14:41;11.60;99.90
12370;DHT22;6249;52.128;9.986;2023-03-23T21:18:04;11.80;99.90
12370;DHT22;6249;52.128;9.986;2023-03-23T21:21:26;12.10;99.90
12370;DHT22;6249;52.128;9.986;2023-03-23T21:24:47;12.30;99.90
12370;DHT22;6249;52.128;9.986;2023-03-23T21:28:11;12.40;99.90
12370;DHT22;6249;52.128;9.986;2023-03-23T21:31:32;12.40;99.90
12370;DHT22;6249;52.128;9.986;2023-03-23T21:34:54;12.50;99.90
12370;DHT22;6249;52.128;9.986;2023-03-23T21:38:18;12.30;99.90
12370;DHT22;6249;52.128;9.986;2023-03-23T21:41:45;12.30;99.90
12370;DHT22;6249;52.128;9.986;2023-03-23T21:45:12;12.10;99.90
12370;DHT22;6249;52.128;9.986;2023-03-23T21:48:38;12.20;99.90
12370;DHT22;6249;52.128;9.986;2023-03-23T21:52:03;12.10;99.90
12370;DHT22;6249;52.128;9.986;2023-03-23T21:55:24;12.00;99.90
12370;DHT22;6249;52.128;9.986;2023-03-23T21:58:49;12.00;99.90
12370;DHT22;6249;52.128;9.986;2023-03-23T22:02:15;11.90;99.90
12370;DHT22;6249;52.128;9.986;2023-03-23T22:05:38;11.90;99.90
12370;DHT22;6249;52.128;9.986;2023-03-23T22:09:02;11.90;99.90
12370;DHT22;6249;52.128;9.986;2023-03-23T22:12:24;11.90;99.90
12370;DHT22;6249;52.128;9.986;2023-03-23T22:15:46;11.80;99.90
12370;DHT22;6249;52.128;9.986;2023-03-23T22:19:09;11.90;99.90
12370;DHT22;6249;52.128;9.986;2023-03-23T22:22:29;12.00;99.90
12370;DHT22;6249;52.128;9.986;2023-03-23T22:25:52;12.00;99.90
12370;DHT22;6249;52.128;9.986;2023-03-23T22:29:15;12.00;99.90
12370;DHT22;6249;52.128;9.986;2023-03-23T22:32:39;12.00;99.90
12370;DHT22;6249;52.128;9.986;2023-03-23T22:36:03;12.10;99.90
12370;DHT22;6249;52.128;9.986;2023-03-23T22:39:28;12.10;99.90
12370;DHT22;6249;52.128;9.986;2023-03-23T22:42:49;12.10;99.90
12370;DHT22;6249;52.128;9.986;2023-03-23T22:46:10;12.10;99.90
12370;DHT22;6249;52.128;9.986;2023-03-23T22:49:34;12.20;99.90
12370;DHT22;6249;52.128;9.986;2023-03-23T22:52:56;12.20;99.90
12370;DHT22;6249;52.128;9.986;2023-03-23T22:56:18;12.20;99.90
12370;DHT22;6249;52.128;9.986;2023-03-23T22:59:41;12.20;99.90
12370;DHT22;6249;52.128;9.986;2023-03-23T23:03:05;12.20;99.90
12370;DHT22;6249;52.128;9.986;2023-03-23T23:06:28;12.20;99.90
12370;DHT22;6249;52.128;9.986;2023-03-23T23:09:53;12.30;99.90
12370;DHT22;6249;52.128;9.986;2023-03-23T23:13:15;12.20;99.90